createdAt,value
2022-09-06T00:01:59.038Z,100904.81
2022-09-06T00:07:00.662Z,100906.53
2022-09-06T00:12:02.354Z,100901.97
2022-09-06T00:17:04.108Z,100892.22
2022-09-06T00:22:05.674Z,100894.03
2022-09-06T00:27:08.822Z,100901.78
2022-09-06T00:32:10.446Z,100896.34
2022-09-06T00:37:12.028Z,100904.22
2022-09-06T00:42:13.997Z,100888.53
2022-09-06T00:47:15.831Z,100890.13
2022-09-06T00:52:19.882Z,100879.81
2022-09-06T00:57:21.990Z,100877.66
2022-09-06T01:02:24.026Z,100889.41
2022-09-06T01:08:10.338Z,100895.88
2022-09-06T01:13:40.040Z,100897.16
2022-09-06T01:18:53.410Z,100890.81
2022-09-06T01:24:16.664Z,100887.22
2022-09-06T01:29:36.882Z,100894.34
2022-09-06T01:34:45.515Z,100895.91
2022-09-06T01:39:47.503Z,100896.91
2022-09-06T01:44:55.263Z,100896.16
2022-09-06T01:50:45.066Z,100896.69
2022-09-06T01:56:09.821Z,100897.97
2022-09-06T02:01:29.902Z,100889.47
2022-09-06T02:06:37.813Z,100896.00
2022-09-06T02:11:47.074Z,100890.19
2022-09-06T02:16:53.828Z,100886.69
2022-09-06T02:21:58.253Z,100901.53
2022-09-06T02:26:59.982Z,100879.78
2022-09-06T02:32:21.071Z,100885.16
2022-09-06T02:37:27.147Z,100876.19
2022-09-06T02:42:28.903Z,100876.00
2022-09-06T02:47:30.489Z,100874.78
2022-09-06T02:52:32.066Z,100870.34
2022-09-06T02:57:33.658Z,100870.81
2022-09-06T03:02:35.296Z,100865.16
2022-09-06T03:07:36.931Z,100866.03
2022-09-06T03:12:38.499Z,100855.69
2022-09-06T03:17:41.022Z,100860.25
2022-09-06T03:22:42.641Z,100860.25
2022-09-06T03:27:44.488Z,100850.84
2022-09-06T03:32:46.056Z,100851.00
2022-09-06T03:37:47.639Z,100851.84
2022-09-06T03:42:49.273Z,100851.38
2022-09-06T03:47:50.859Z,100853.38
2022-09-06T03:52:52.500Z,100854.81
2022-09-06T03:57:54.127Z,100858.81
2022-09-06T04:02:58.629Z,100846.19
2022-09-06T04:08:03.241Z,100848.28
2022-09-06T04:13:04.811Z,100844.22
2022-09-06T04:18:09.266Z,100843.88
2022-09-06T04:23:11.067Z,100848.47
2022-09-06T04:28:12.675Z,100841.63
2022-09-06T04:33:14.263Z,100856.53
2022-09-06T04:38:16.196Z,100841.28
2022-09-06T04:43:17.997Z,100832.59
2022-09-06T04:48:19.562Z,100825.56
2022-09-06T04:53:21.658Z,100839.03
2022-09-06T04:58:23.245Z,100847.22
2022-09-06T05:03:24.877Z,100841.28
2022-09-06T05:08:26.428Z,100841.63
2022-09-06T05:13:28.006Z,100843.88
2022-09-06T05:18:30.023Z,100852.09
2022-09-06T05:23:31.750Z,100851.97
2022-09-06T05:28:33.836Z,100850.78
2022-09-06T05:33:35.438Z,100861.78
2022-09-06T05:38:37.076Z,100873.81
2022-09-06T05:43:38.698Z,100874.06
2022-09-06T05:48:40.422Z,100881.47
2022-09-06T05:53:44.226Z,100869.22
2022-09-06T05:58:45.832Z,100866.56
2022-09-06T06:04:01.270Z,100860.34
2022-09-06T06:09:03.353Z,100863.94
2022-09-06T06:14:05.002Z,100865.19
2022-09-06T06:19:06.598Z,100869.31
2022-09-06T06:24:08.434Z,100870.50
2022-09-06T06:29:10.474Z,100873.13
2022-09-06T06:34:12.105Z,100876.31
2022-09-06T06:39:13.895Z,100877.75
2022-09-06T06:44:15.461Z,100862.91
2022-09-06T06:49:17.066Z,100866.59
2022-09-06T06:54:18.675Z,100866.94
2022-09-06T06:59:20.670Z,100865.50
2022-09-06T07:04:22.328Z,100862.66
2022-09-06T07:09:24.054Z,100861.25
2022-09-06T07:14:25.990Z,100857.25
2022-09-06T07:24:49.581Z,100867.84
2022-09-06T07:29:51.163Z,100872.97
2022-09-06T07:34:52.752Z,100878.75
2022-09-06T07:39:54.590Z,100882.78
2022-09-06T07:44:57.791Z,100888.53
2022-09-06T07:55:20.958Z,100891.41
2022-09-06T08:00:22.638Z,100900.88
2022-09-06T08:10:51.239Z,100876.00
2022-09-06T08:16:06.842Z,100866.31
2022-09-06T08:21:15.161Z,100865.75
2022-09-06T08:26:18.094Z,100846.47
2022-09-06T08:31:19.838Z,100836.56
2022-09-06T08:36:21.947Z,100850.91
2022-09-06T08:41:34.522Z,100847.28
2022-09-06T08:46:46.145Z,100844.84
2022-09-06T08:51:54.552Z,100848.84
2022-09-06T08:57:21.261Z,100845.38
2022-09-06T09:02:22.938Z,100849.53
2022-09-06T09:07:33.818Z,100848.31
2022-09-06T09:12:43.121Z,100843.53
2022-09-06T09:17:46.917Z,100834.53
2022-09-06T09:22:48.960Z,100841.31
2022-09-06T09:27:59.676Z,100843.22
2022-09-06T09:33:01.258Z,100834.38
2022-09-06T09:38:12.475Z,100832.59
2022-09-06T09:43:16.211Z,100828.81
2022-09-06T09:48:27.794Z,100840.09
2022-09-06T09:53:29.600Z,100839.13
2022-09-06T09:58:35.333Z,100836.78
2022-09-06T10:08:59.468Z,100811.91
2022-09-06T10:14:22.832Z,100807.03
2022-09-06T10:19:38.517Z,100804.00
2022-09-06T10:25:01.787Z,100802.72
2022-09-06T10:30:06.787Z,100788.00
2022-09-06T10:35:30.868Z,100792.09
2022-09-06T10:40:41.291Z,100778.00
2022-09-06T10:45:47.291Z,100756.03
2022-09-06T10:51:04.224Z,100757.09
2022-09-06T10:56:19.543Z,100757.44
2022-09-06T11:01:41.416Z,100740.25
2022-09-06T11:06:51.063Z,100734.81
2022-09-06T11:12:17.829Z,100738.94
2022-09-06T11:17:36.423Z,100736.16
2022-09-06T11:23:02.320Z,100740.09
2022-09-06T11:28:10.307Z,100745.03
2022-09-06T11:33:26.858Z,100739.94
2022-09-06T11:38:28.525Z,100733.03
2022-09-06T11:43:44.161Z,100733.31
2022-09-06T11:49:02.461Z,100728.50
2022-09-06T11:54:15.678Z,100722.06
2022-09-06T11:59:18.702Z,100725.44
2022-09-06T12:04:20.302Z,100726.50
2022-09-06T12:09:30.836Z,100722.88
2022-09-06T12:14:49.245Z,100721.25
2022-09-06T12:19:55.455Z,100710.25
2022-09-06T12:24:59.773Z,100711.97
2022-09-06T12:30:05.820Z,100697.22
2022-09-06T12:40:45.611Z,100695.59
2022-09-06T12:45:50.833Z,100693.63
2022-09-06T12:51:06.971Z,100691.75
2022-09-06T12:56:14.065Z,100685.69
2022-09-06T13:01:26.243Z,100685.59
2022-09-06T13:06:30.619Z,100677.03
2022-09-06T13:11:38.744Z,100659.69
2022-09-06T13:16:46.553Z,100651.50
2022-09-06T13:21:48.564Z,100643.31
2022-09-06T13:26:51.490Z,100630.69
2022-09-06T13:31:57.008Z,100623.13
2022-09-06T13:37:06.370Z,100614.50
2022-09-06T13:42:10.915Z,100616.50
2022-09-06T13:47:12.510Z,100624.00
2022-09-06T13:52:14.667Z,100615.78
2022-09-06T13:57:19.976Z,100625.19
2022-09-06T14:02:25.366Z,100618.91
2022-09-06T14:07:27.003Z,100623.66
2022-09-06T14:12:28.579Z,100605.03
2022-09-06T14:17:30.272Z,100602.97
2022-09-06T14:22:31.894Z,100597.13
2022-09-06T14:27:35.303Z,100585.50
2022-09-06T14:32:36.875Z,100586.25
2022-09-06T14:37:38.492Z,100587.22
2022-09-06T14:42:40.057Z,100591.97
2022-09-06T14:47:41.668Z,100580.63
2022-09-06T14:52:43.271Z,100575.81
2022-09-06T14:57:45.832Z,100577.81
2022-09-06T15:02:47.423Z,100572.22
2022-09-06T15:07:49.110Z,100572.97
2022-09-06T15:12:50.675Z,100575.03
2022-09-06T15:17:52.302Z,100569.00
2022-09-06T15:23:21.825Z,100570.13
2022-09-06T15:28:17.850Z,100569.88
2022-09-06T15:33:19.679Z,100560.69
2022-09-06T15:38:21.254Z,100558.66
2022-09-06T15:43:22.879Z,100551.00
2022-09-06T15:48:24.548Z,100528.06
2022-09-06T15:53:26.173Z,100524.97
2022-09-06T15:58:28.162Z,100533.16
2022-09-06T16:03:30.083Z,100526.16
2022-09-06T16:08:32.372Z,100531.53
2022-09-06T16:13:35.526Z,100537.09
2022-09-06T16:18:39.362Z,100536.97
2022-09-06T16:23:41.962Z,100535.97
2022-09-06T16:28:43.699Z,100511.31
2022-09-06T16:33:45.896Z,100515.78
2022-09-06T16:38:48.523Z,100510.66
2022-09-06T16:43:50.177Z,100501.03
2022-09-06T16:48:56.793Z,100489.09
2022-09-06T16:53:59.819Z,100495.28
2022-09-06T16:59:05.235Z,100497.31
2022-09-06T17:04:07.549Z,100495.25
2022-09-06T17:09:09.202Z,100485.50
2022-09-06T17:14:10.826Z,100488.47
2022-09-06T17:19:13.999Z,100479.91
2022-09-06T17:24:15.695Z,100489.84
2022-09-06T17:29:17.257Z,100490.53
2022-09-06T17:34:18.857Z,100496.53
2022-09-06T17:39:21.415Z,100496.16
2022-09-06T17:44:25.519Z,100499.03
2022-09-06T17:49:27.600Z,100511.38
2022-09-06T17:54:31.752Z,100512.06
2022-09-06T17:59:35.645Z,100528.09
2022-09-06T18:04:37.667Z,100534.22
2022-09-06T18:09:41.627Z,100534.53
2022-09-06T18:14:43.245Z,100528.69
2022-09-06T18:19:44.902Z,100527.66
2022-09-06T18:24:46.942Z,100521.81
2022-09-06T18:29:49.452Z,100524.53
2022-09-06T18:34:51.064Z,100527.94
2022-09-06T18:39:52.750Z,100529.34
2022-09-06T18:44:55.969Z,100522.47
2022-09-06T18:49:57.607Z,100525.84
2022-09-06T18:54:59.215Z,100525.13
2022-09-06T19:00:01.061Z,100522.50
2022-09-06T19:05:02.725Z,100524.31
2022-09-06T19:10:05.223Z,100516.06
2022-09-06T19:15:07.348Z,100517.78
2022-09-06T19:20:10.818Z,100528.88
2022-09-06T19:25:12.410Z,100519.44
2022-09-06T19:30:14.705Z,100518.00
2022-09-06T19:35:16.392Z,100518.13
2022-09-06T19:40:18.038Z,100511.09
2022-09-06T19:45:19.643Z,100510.91
2022-09-06T19:50:21.504Z,100511.25
2022-09-06T19:55:23.077Z,100501.84
2022-09-06T20:00:24.685Z,100500.97
2022-09-06T20:05:26.360Z,100492.72
2022-09-06T20:10:28.035Z,100478.69
2022-09-06T20:15:29.702Z,100483.63
2022-09-06T20:20:32.717Z,100493.41
2022-09-06T20:25:34.375Z,100492.50
2022-09-06T20:30:41.852Z,100477.44
2022-09-06T20:35:43.429Z,100473.66
2022-09-06T20:40:46.117Z,100484.88
2022-09-06T20:45:49.490Z,100477.69
2022-09-06T20:51:02.123Z,100477.16
2022-09-06T20:56:10.788Z,100478.06
2022-09-06T21:01:23.193Z,100473.78
2022-09-06T21:06:26.979Z,100473.34
2022-09-06T21:11:28.635Z,100468.50
2022-09-06T21:16:30.953Z,100456.34
2022-09-06T21:21:34.865Z,100471.13
2022-09-06T21:26:36.701Z,100474.56
2022-09-06T21:31:38.514Z,100473.81
2022-09-06T21:36:40.570Z,100467.22
2022-09-06T21:41:43.725Z,100475.03
2022-09-06T21:46:45.380Z,100467.63
2022-09-06T21:51:46.999Z,100465.66
2022-09-06T21:56:48.633Z,100454.22
2022-09-06T22:01:52.731Z,100456.00
2022-09-06T22:06:54.452Z,100445.41
2022-09-06T22:11:56.030Z,100447.81
2022-09-06T22:16:57.648Z,100444.25
2022-09-06T22:21:59.235Z,100441.66
2022-09-06T22:27:00.842Z,100429.59
2022-09-06T22:32:02.687Z,100418.91
2022-09-06T22:37:04.312Z,100436.59
2022-09-06T22:42:06.047Z,100444.47
2022-09-06T22:47:07.762Z,100436.69
2022-09-06T22:52:09.317Z,100431.53
2022-09-06T22:57:11.895Z,100434.97
2022-09-06T23:02:13.537Z,100431.09
2022-09-06T23:07:15.099Z,100430.69
2022-09-06T23:12:16.670Z,100428.81
2022-09-06T23:17:18.274Z,100426.38
2022-09-06T23:22:19.879Z,100422.97
2022-09-06T23:27:22.337Z,100416.09
2022-09-06T23:32:24.119Z,100416.09
2022-09-06T23:37:25.690Z,100417.13
2022-09-06T23:42:27.275Z,100416.72
2022-09-06T23:47:28.934Z,100398.66
2022-09-06T23:52:30.527Z,100400.88
2022-09-06T23:57:32.136Z,100416.19
